Terminal Aerodrome Forecast
Issued by NWS

Home | Current Version | Previous Version | Text Only | Print | Product List | Glossary On
Versions: 1 2 3 4 5 6 7 8 9 10 11 12 13 14 15
961
FTUS46 KSTO 070530
TAFMHR
TAF
KMHR 070530Z 0706/0806 VRB02KT P6SM SCT250
      TEMPO 0713/0717 5SM BR
     FM071900 32009KT P6SM SCT250=

USA.gov is the U.S. government's official web portal to all federal, state and local government web resources and services.